Beacon, New York
Current Conditions -  °F | °C
As of 8:45 AM on Monday 20 Oct 2014 (Local Time) from KSWF Reporting Station
Broken Clouds Broken Clouds  
Wind Chill:   Ceiling: 12000
Heat Index:   Visibility: 20mi
Dew Point:   Wind: 7mph
Humidity: 75%   Direction: 260°W
Pressure: 30.1"   Gusts: NA
Location:  41.5°N, 73.97°W
Report Text: KSWF 201245Z 26006KT 20SM BKN120 04/00 A3010
Loading
Personal Weather Stations






























Interactive Weather Map
Tropical Storm Tracking
New forecast layout! Learn more

10-Day Weather Forecast

Advertisements
Track Severe Weather on mobile